createdAt,value
2018-02-17T00:01:05.615Z,82.40
2018-02-17T00:06:33.770Z,82.30
2018-02-17T00:12:02.912Z,82.40
2018-02-17T00:17:31.847Z,82.40
2018-02-17T00:23:00.008Z,82.30
2018-02-17T00:28:28.153Z,82.50
2018-02-17T00:33:56.293Z,82.30
2018-02-17T00:39:24.432Z,82.40
2018-02-17T00:44:52.569Z,82.50
2018-02-17T00:50:21.474Z,82.70
2018-02-17T00:55:49.633Z,82.60
2018-02-17T01:01:17.792Z,82.60
2018-02-17T01:06:45.944Z,82.70
2018-02-17T01:12:14.075Z,82.80
2018-02-17T01:17:42.229Z,82.80
2018-02-17T01:23:11.154Z,82.80
2018-02-17T01:28:39.297Z,82.80
2018-02-17T01:34:08.215Z,82.90
2018-02-17T01:39:36.489Z,82.90
2018-02-17T01:45:04.638Z,82.90
2018-02-17T01:50:33.721Z,83.00
2018-02-17T01:56:02.646Z,82.90
2018-02-17T02:01:30.803Z,82.90
2018-02-17T02:06:58.959Z,83.40
2018-02-17T02:12:27.084Z,82.90
2018-02-17T02:17:55.236Z,83.00
2018-02-17T02:23:24.145Z,83.10
2018-02-17T02:28:52.281Z,83.70
2018-02-17T02:34:20.428Z,83.10
2018-02-17T02:39:49.322Z,83.10
2018-02-17T02:45:17.453Z,83.00
2018-02-17T02:50:45.591Z,83.00
2018-02-17T02:56:14.491Z,83.00
2018-02-17T03:01:42.613Z,83.00
2018-02-17T03:07:10.764Z,83.60
2018-02-17T03:12:39.674Z,83.50
2018-02-17T03:18:07.804Z,83.00
2018-02-17T03:23:35.944Z,83.10
2018-02-17T03:29:04.878Z,83.10
2018-02-17T03:34:33.022Z,83.10
2018-02-17T03:40:01.155Z,83.10
2018-02-17T03:45:29.288Z,83.10
2018-02-17T03:50:57.449Z,83.10
2018-02-17T03:56:25.592Z,83.20
2018-02-17T04:01:53.735Z,83.00
2018-02-17T04:07:21.862Z,83.10
2018-02-17T04:12:50.026Z,83.10
2018-02-17T04:18:18.173Z,83.00
2018-02-17T04:23:46.313Z,83.00
2018-02-17T04:29:14.452Z,83.00
2018-02-17T04:34:42.580Z,83.00
2018-02-17T04:46:41.268Z,83.30
2018-02-17T04:52:10.432Z,83.20
2018-02-17T04:57:44.207Z,83.10
2018-02-17T05:03:14.643Z,83.10
2018-02-17T05:14:46.323Z,83.00
2018-02-17T05:20:16.338Z,83.00
2018-02-17T05:25:51.076Z,82.90
2018-02-17T05:31:21.772Z,82.90
2018-02-17T05:36:51.874Z,82.80
2018-02-17T05:42:22.538Z,82.90
2018-02-17T05:47:56.372Z,82.80
2018-02-17T05:53:24.508Z,82.80
2018-02-17T05:58:52.664Z,82.80
2018-02-17T06:04:20.804Z,82.80
2018-02-17T06:09:48.940Z,82.80
2018-02-17T06:15:17.848Z,82.80
2018-02-17T06:20:45.986Z,82.90
2018-02-17T06:26:14.872Z,82.90
2018-02-17T06:31:43.006Z,82.90
2018-02-17T06:37:11.160Z,82.90
2018-02-17T06:42:40.059Z,83.00
2018-02-17T06:48:08.205Z,83.00
2018-02-17T06:53:36.340Z,83.00
2018-02-17T06:59:05.271Z,83.00
2018-02-17T07:04:33.411Z,83.00
2018-02-17T07:10:01.529Z,83.10
2018-02-17T07:15:29.689Z,83.10
2018-02-17T07:20:57.963Z,83.00
2018-02-17T07:26:26.320Z,83.10
2018-02-17T07:31:54.464Z,83.00
2018-02-17T07:37:22.607Z,83.10
2018-02-17T07:42:51.517Z,83.60
2018-02-17T07:48:19.732Z,83.10
2018-02-17T07:53:47.876Z,83.00
2018-02-17T07:59:16.014Z,83.10
2018-02-17T08:04:44.926Z,83.00
2018-02-17T08:10:13.067Z,83.00
2018-02-17T08:15:41.982Z,83.10
2018-02-17T08:21:10.131Z,83.10
2018-02-17T08:26:39.167Z,83.10
2018-02-17T08:32:08.075Z,83.00
2018-02-17T08:37:36.303Z,82.90
2018-02-17T08:43:04.469Z,82.90
2018-02-17T08:48:32.612Z,82.90
2018-02-17T08:54:00.751Z,83.00
2018-02-17T08:59:28.912Z,83.00
2018-02-17T09:04:57.835Z,82.80
2018-02-17T09:10:44.731Z,82.90
2018-02-17T09:16:12.849Z,82.90
2018-02-17T09:21:40.980Z,82.70
2018-02-17T09:27:09.143Z,82.50
2018-02-17T09:32:37.349Z,82.30
2018-02-17T09:38:05.471Z,82.10
2018-02-17T09:43:33.637Z,82.20
2018-02-17T09:49:01.804Z,82.30
2018-02-17T09:54:29.960Z,82.20
2018-02-17T09:59:58.858Z,82.30
2018-02-17T10:05:27.007Z,82.20
2018-02-17T10:10:55.148Z,82.30
2018-02-17T10:16:23.295Z,82.30
2018-02-17T10:21:51.436Z,82.20
2018-02-17T10:27:19.586Z,82.40
2018-02-17T10:32:48.502Z,82.50
2018-02-17T10:38:16.632Z,82.40
2018-02-17T10:43:44.769Z,83.10
2018-02-17T10:49:13.854Z,82.50
2018-02-17T10:54:41.994Z,82.50
2018-02-17T11:00:10.155Z,82.40
2018-02-17T11:05:39.266Z,82.30
2018-02-17T11:11:07.437Z,82.30
2018-02-17T11:16:35.576Z,82.20
2018-02-17T11:22:03.701Z,82.20
2018-02-17T11:27:31.823Z,82.20
2018-02-17T11:32:59.949Z,82.30
2018-02-17T11:38:28.092Z,82.30
2018-02-17T11:43:56.245Z,82.30
2018-02-17T11:49:24.371Z,82.10
2018-02-17T11:54:52.515Z,82.30
2018-02-17T12:00:20.684Z,82.30
2018-02-17T12:05:49.578Z,82.50
2018-02-17T12:11:17.715Z,82.30
2018-02-17T12:16:45.848Z,82.40
2018-02-17T12:22:14.020Z,82.40
2018-02-17T12:27:42.947Z,82.40
2018-02-17T12:33:11.090Z,82.40
2018-02-17T12:38:39.221Z,82.30
2018-02-17T12:44:07.379Z,82.30
2018-02-17T12:49:36.443Z,82.10
2018-02-17T12:55:04.592Z,82.20
2018-02-17T13:00:32.743Z,82.20
2018-02-17T13:06:00.890Z,82.20
2018-02-17T13:11:47.291Z,82.30
2018-02-17T13:17:15.517Z,82.20
2018-02-17T13:22:52.778Z,82.30
2018-02-17T13:28:25.623Z,82.30
2018-02-17T13:33:54.518Z,82.20
2018-02-17T13:39:22.662Z,82.10
2018-02-17T13:44:51.576Z,82.20
2018-02-17T13:50:19.729Z,82.20
2018-02-17T13:55:48.632Z,82.10
2018-02-17T14:01:16.788Z,82.10
2018-02-17T14:06:44.940Z,82.00
2018-02-17T14:12:13.102Z,81.90
2018-02-17T14:17:41.237Z,82.10
2018-02-17T14:23:09.393Z,81.90
2018-02-17T14:28:37.553Z,82.00
2018-02-17T14:34:05.697Z,82.20
2018-02-17T14:39:33.856Z,81.90
2018-02-17T14:45:01.999Z,82.10
2018-02-17T14:50:30.144Z,82.00
2018-02-17T14:55:58.298Z,82.00
2018-02-17T15:01:27.348Z,82.00
2018-02-17T15:06:55.507Z,82.00
2018-02-17T15:12:23.702Z,82.10
2018-02-17T15:17:51.857Z,82.30
2018-02-17T15:23:20.047Z,82.40
2018-02-17T15:28:48.190Z,82.40
2018-02-17T15:34:16.318Z,82.40
2018-02-17T15:39:44.468Z,82.60
2018-02-17T15:45:13.384Z,83.20
2018-02-17T15:50:41.519Z,82.60
2018-02-17T15:56:10.444Z,82.70
2018-02-17T16:01:38.602Z,82.70
2018-02-17T16:07:06.778Z,82.90
2018-02-17T16:12:35.027Z,82.90
2018-02-17T16:18:03.213Z,82.90
2018-02-17T16:23:31.366Z,83.00
2018-02-17T16:29:00.374Z,82.90
2018-02-17T16:34:28.537Z,82.90
2018-02-17T16:39:57.464Z,82.90
2018-02-17T16:45:25.629Z,82.90
2018-02-17T16:50:53.788Z,83.00
2018-02-17T16:56:21.970Z,83.00
2018-02-17T17:01:50.122Z,82.90
2018-02-17T17:07:18.259Z,82.90
2018-02-17T17:12:46.420Z,83.00
2018-02-17T17:18:14.597Z,82.90
2018-02-17T17:23:42.755Z,83.00
2018-02-17T17:29:10.903Z,83.00
2018-02-17T17:34:39.073Z,83.00
2018-02-17T17:40:07.972Z,83.10
2018-02-17T17:45:36.136Z,83.10
2018-02-17T17:51:04.289Z,83.10
2018-02-17T17:56:32.464Z,83.10
2018-02-17T18:02:01.379Z,83.10
2018-02-17T18:07:29.537Z,83.10
2018-02-17T18:12:57.691Z,83.10
2018-02-17T18:18:25.843Z,83.10
2018-02-17T18:23:53.995Z,83.00
2018-02-17T18:29:22.139Z,83.10
2018-02-17T18:34:50.284Z,83.00
2018-02-17T18:40:18.509Z,83.00
2018-02-17T18:45:46.646Z,82.90
2018-02-17T18:51:14.796Z,82.80
2018-02-17T18:56:43.023Z,82.80
2018-02-17T19:02:11.160Z,82.80
2018-02-17T19:07:39.320Z,82.90
2018-02-17T19:13:07.449Z,82.80
2018-02-17T19:18:37.123Z,83.40
2018-02-17T19:24:05.495Z,82.80
2018-02-17T19:29:33.664Z,82.70
2018-02-17T19:35:01.824Z,82.70
2018-02-17T19:40:29.983Z,82.60
2018-02-17T19:45:58.139Z,82.60
2018-02-17T19:51:26.295Z,82.70
2018-02-17T19:56:54.476Z,82.60
2018-02-17T20:02:22.702Z,82.60
2018-02-17T20:07:50.839Z,83.20
2018-02-17T20:13:18.987Z,82.60
2018-02-17T20:18:47.135Z,82.60
2018-02-17T20:24:16.020Z,82.60
2018-02-17T20:29:44.162Z,82.60
2018-02-17T20:35:12.312Z,82.60
2018-02-17T20:40:41.416Z,82.60
2018-02-17T20:46:09.614Z,82.60
2018-02-17T20:51:37.820Z,82.60
2018-02-17T20:57:06.739Z,82.50
2018-02-17T21:02:35.663Z,82.50
2018-02-17T21:08:03.866Z,82.50
2018-02-17T21:13:32.025Z,82.50
2018-02-17T21:19:00.159Z,82.50
2018-02-17T21:24:28.336Z,82.50
2018-02-17T21:29:56.490Z,82.50
2018-02-17T21:35:24.637Z,82.50
2018-02-17T21:40:52.776Z,82.40
2018-02-17T21:46:20.912Z,82.40
2018-02-17T21:51:49.071Z,82.40
2018-02-17T21:57:17.216Z,82.40
2018-02-17T22:02:45.370Z,82.30
2018-02-17T22:08:13.535Z,83.00
2018-02-17T22:13:42.512Z,82.40
2018-02-17T22:19:10.673Z,82.30
2018-02-17T22:24:39.594Z,82.30
2018-02-17T22:30:08.506Z,83.00
2018-02-17T22:35:36.667Z,82.40
2018-02-17T22:41:04.849Z,82.30
2018-02-17T22:46:32.984Z,82.40
2018-02-17T22:52:01.150Z,82.40
2018-02-17T22:57:30.048Z,82.40
2018-02-17T23:02:58.949Z,82.40
2018-02-17T23:08:27.118Z,82.30
2018-02-17T23:13:56.001Z,82.20
2018-02-17T23:19:24.143Z,82.20
2018-02-17T23:24:52.300Z,82.20
2018-02-17T23:30:20.459Z,82.30
2018-02-17T23:35:48.656Z,82.40
2018-02-17T23:41:16.794Z,82.30
2018-02-17T23:46:44.943Z,82.30
2018-02-17T23:52:13.083Z,82.20
2018-02-17T23:57:42.016Z,82.40
